createdAt,value
2018-09-09T00:00:54.930Z,9.97
2018-09-09T00:03:23.441Z,10.43
2018-09-09T00:05:51.958Z,11.03
2018-09-09T00:08:20.470Z,9.83
2018-09-09T00:10:48.969Z,11.80
2018-09-09T00:13:17.467Z,9.83
2018-09-09T00:15:45.965Z,9.33
2018-09-09T00:18:14.449Z,11.23
2018-09-09T00:20:42.950Z,15.83
2018-09-09T00:23:11.439Z,9.13
2018-09-09T00:25:39.990Z,14.43
2018-09-09T00:28:08.498Z,10.90
2018-09-09T00:30:36.992Z,11.23
2018-09-09T00:33:05.566Z,10.77
2018-09-09T00:35:34.131Z,10.17
2018-09-09T00:38:02.659Z,10.27
2018-09-09T00:40:31.183Z,8.20
2018-09-09T00:42:59.740Z,11.90
2018-09-09T00:45:28.273Z,12.40
2018-09-09T00:47:56.799Z,9.80
2018-09-09T00:50:30.635Z,10.10
2018-09-09T00:53:04.440Z,9.53
2018-09-09T00:55:33.018Z,11.07
2018-09-09T00:58:01.526Z,14.00
2018-09-09T01:00:35.363Z,9.57
2018-09-09T01:03:03.970Z,10.80
2018-09-09T01:05:32.511Z,7.63
2018-09-09T01:08:01.059Z,10.27
2018-09-09T01:10:29.551Z,10.33
2018-09-09T01:12:58.845Z,9.77
2018-09-09T01:15:27.403Z,11.60
2018-09-09T01:17:55.938Z,8.53
2018-09-09T01:20:24.507Z,14.80
2018-09-09T01:22:53.038Z,11.97
2018-09-09T01:25:21.551Z,15.80
2018-09-09T01:27:50.098Z,8.27
2018-09-09T01:30:18.683Z,10.70
2018-09-09T01:32:47.221Z,10.60
2018-09-09T01:35:15.739Z,8.67
2018-09-09T01:37:44.235Z,8.57
2018-09-09T01:40:12.726Z,9.20
2018-09-09T01:42:41.214Z,9.23
2018-09-09T01:45:09.683Z,12.50
2018-09-09T01:47:38.186Z,7.80
2018-09-09T01:50:06.762Z,7.73
2018-09-09T01:52:35.255Z,10.60
2018-09-09T01:55:03.747Z,10.37
2018-09-09T01:57:32.248Z,12.57
2018-09-09T02:00:00.747Z,9.60
2018-09-09T02:02:29.259Z,9.73
2018-09-09T02:04:57.759Z,14.83
2018-09-09T02:07:26.254Z,9.70
2018-09-09T02:09:54.746Z,15.40
2018-09-09T02:12:23.285Z,12.33
2018-09-09T02:14:51.803Z,9.50
2018-09-09T02:17:20.316Z,14.40
2018-09-09T02:19:48.838Z,9.43
2018-09-09T02:22:17.356Z,12.13
2018-09-09T02:24:45.835Z,16.20
2018-09-09T02:27:14.345Z,10.23
2018-09-09T02:29:42.863Z,12.07
2018-09-09T02:32:11.438Z,12.37
2018-09-09T02:34:39.950Z,9.67
2018-09-09T02:37:08.510Z,12.90
2018-09-09T02:39:37.052Z,14.10
2018-09-09T02:42:05.554Z,11.07
2018-09-09T02:44:34.122Z,18.27
2018-09-09T02:47:02.647Z,12.87
2018-09-09T02:49:31.173Z,13.00
2018-09-09T02:51:59.687Z,11.83
2018-09-09T02:54:28.190Z,13.03
2018-09-09T02:56:56.711Z,15.67
2018-09-09T02:59:25.340Z,14.33
2018-09-09T03:01:53.803Z,14.90
2018-09-09T03:04:22.358Z,13.77
2018-09-09T03:06:50.876Z,13.07
2018-09-09T03:09:19.431Z,12.50
2018-09-09T03:11:47.939Z,11.23
2018-09-09T03:14:16.498Z,12.93
2018-09-09T03:16:45.000Z,10.63
2018-09-09T03:19:13.494Z,13.53
2018-09-09T03:21:42.024Z,13.33
2018-09-09T03:24:10.542Z,12.90
2018-09-09T03:26:39.087Z,10.33
2018-09-09T03:29:07.599Z,11.30
2018-09-09T03:31:36.191Z,15.33
2018-09-09T03:34:04.755Z,10.97
2018-09-09T03:36:33.291Z,13.00
2018-09-09T03:39:01.904Z,15.57
2018-09-09T03:41:30.513Z,12.73
2018-09-09T03:43:59.099Z,11.10
2018-09-09T03:46:27.658Z,14.43
2018-09-09T03:48:56.258Z,16.70
2018-09-09T03:51:24.809Z,11.90
2018-09-09T03:53:53.379Z,18.03
2018-09-09T03:56:21.992Z,14.00
2018-09-09T03:58:50.593Z,11.87
2018-09-09T04:01:19.162Z,13.73
2018-09-09T04:03:47.753Z,13.80
2018-09-09T04:06:16.345Z,14.53
2018-09-09T04:08:45.039Z,13.77
2018-09-09T04:11:13.634Z,11.07
2018-09-09T04:13:43.150Z,15.43
2018-09-09T04:16:12.939Z,53.33
2018-09-09T04:18:42.555Z,93.60
2018-09-09T04:21:11.142Z,67.70
2018-09-09T04:23:39.746Z,54.27
2018-09-09T04:26:08.809Z,52.20
2018-09-09T04:28:37.407Z,33.23
2018-09-09T04:31:06.063Z,26.80
2018-09-09T04:33:34.657Z,23.30
2018-09-09T04:36:03.246Z,16.67
2018-09-09T04:38:31.828Z,13.53
2018-09-09T04:41:00.380Z,14.57
2018-09-09T04:43:28.959Z,15.30
2018-09-09T04:45:57.548Z,12.47
2018-09-09T04:48:26.123Z,11.73
2018-09-09T04:50:54.743Z,13.70
2018-09-09T04:53:23.329Z,12.13
2018-09-09T04:55:51.979Z,12.47
2018-09-09T04:58:20.559Z,11.03
2018-09-09T05:00:49.187Z,17.13
2018-09-09T05:03:17.802Z,16.67
2018-09-09T05:05:46.392Z,15.50
2018-09-09T05:08:15.007Z,14.77
2018-09-09T05:10:43.607Z,16.03
2018-09-09T05:13:12.214Z,11.97
2018-09-09T05:15:40.826Z,11.07
2018-09-09T05:18:09.423Z,12.77
2018-09-09T05:20:38.006Z,10.00
2018-09-09T05:23:06.610Z,8.93
2018-09-09T05:25:35.236Z,13.00
2018-09-09T05:28:03.787Z,10.33
2018-09-09T05:30:32.452Z,10.07
2018-09-09T05:33:01.044Z,11.23
2018-09-09T05:35:29.577Z,10.43
2018-09-09T05:37:58.143Z,8.83
2018-09-09T05:40:26.739Z,13.83
2018-09-09T05:42:55.316Z,7.47
2018-09-09T05:45:23.869Z,10.67
2018-09-09T05:47:52.414Z,10.77
2018-09-09T05:50:20.979Z,6.87
2018-09-09T05:52:49.555Z,10.63
2018-09-09T05:55:18.150Z,7.80
2018-09-09T05:57:46.756Z,7.27
2018-09-09T06:00:15.323Z,8.47
2018-09-09T06:02:43.877Z,7.40
2018-09-09T06:05:12.496Z,10.43
2018-09-09T06:07:41.033Z,7.47
2018-09-09T06:10:09.589Z,18.30
2018-09-09T06:12:38.088Z,8.17
2018-09-09T06:15:07.150Z,8.00
2018-09-09T06:17:35.673Z,5.12
2018-09-09T06:20:04.217Z,4.97
2018-09-09T06:22:32.730Z,4.55
2018-09-09T06:25:01.226Z,4.30
2018-09-09T06:27:29.709Z,5.37
2018-09-09T06:29:58.203Z,6.60
2018-09-09T06:32:26.767Z,5.40
2018-09-09T06:34:55.263Z,6.55
2018-09-09T06:37:23.819Z,5.50
2018-09-09T06:39:52.322Z,4.75
2018-09-09T06:42:20.838Z,8.20
2018-09-09T06:44:49.368Z,4.70
2018-09-09T06:47:17.919Z,7.05
2018-09-09T06:49:46.537Z,6.12
2018-09-09T06:52:15.127Z,5.72
2018-09-09T06:54:43.636Z,7.10
2018-09-09T06:57:12.232Z,5.87
2018-09-09T06:59:40.743Z,5.87
2018-09-09T07:02:10.042Z,6.87
2018-09-09T07:04:38.567Z,5.78
2018-09-09T07:07:07.135Z,5.92
2018-09-09T07:09:35.654Z,6.47
2018-09-09T07:12:04.231Z,7.50
2018-09-09T07:14:32.759Z,8.68
2018-09-09T07:17:01.336Z,6.85
2018-09-09T07:19:29.896Z,9.90
2018-09-09T07:21:58.443Z,6.28
2018-09-09T07:24:27.123Z,7.50
2018-09-09T07:26:55.718Z,6.28
2018-09-09T07:29:24.225Z,6.58
2018-09-09T07:31:52.917Z,6.62
2018-09-09T07:34:21.450Z,6.05
2018-09-09T07:36:50.915Z,8.68
2018-09-09T07:39:19.413Z,7.42
2018-09-09T07:41:47.915Z,6.92
2018-09-09T07:44:16.425Z,7.37
2018-09-09T07:46:44.924Z,8.90
2018-09-09T07:49:13.435Z,7.65
2018-09-09T07:51:41.915Z,7.67
2018-09-09T07:54:10.391Z,10.25
2018-09-09T07:56:38.865Z,8.08
2018-09-09T07:59:07.397Z,7.47
2018-09-09T08:01:35.881Z,8.40
2018-09-09T08:04:04.482Z,8.43
2018-09-09T08:06:33.003Z,7.17
2018-09-09T08:09:01.531Z,10.05
2018-09-09T08:11:35.331Z,10.82
2018-09-09T08:14:03.873Z,12.63
2018-09-09T08:16:32.371Z,7.83
2018-09-09T08:19:00.943Z,7.60
2018-09-09T08:21:29.429Z,8.53
2018-09-09T08:23:58.363Z,7.20
2018-09-09T08:26:26.850Z,8.28
2018-09-09T08:28:55.418Z,10.10
2018-09-09T08:31:24.407Z,6.58
2018-09-09T08:33:53.334Z,7.40
2018-09-09T08:36:21.795Z,8.03
2018-09-09T08:38:50.284Z,10.13
2018-09-09T08:41:18.774Z,8.58
2018-09-09T08:43:47.306Z,8.78
2018-09-09T08:46:15.787Z,7.92
2018-09-09T08:48:44.302Z,8.08
2018-09-09T08:51:12.827Z,9.33
2018-09-09T08:53:41.363Z,12.15
2018-09-09T08:56:09.857Z,8.80
2018-09-09T08:58:38.403Z,25.85
2018-09-09T09:01:07.245Z,10.48
2018-09-09T09:03:35.762Z,9.83
2018-09-09T09:06:04.260Z,9.58
2018-09-09T09:08:32.781Z,10.65
2018-09-09T09:11:01.267Z,10.60
2018-09-09T09:13:29.781Z,10.40
2018-09-09T09:15:59.282Z,12.10
2018-09-09T09:18:29.086Z,11.25
2018-09-09T09:20:57.606Z,11.03
2018-09-09T09:23:26.224Z,11.80
2018-09-09T09:25:55.153Z,11.10
2018-09-09T09:28:24.387Z,11.03
2018-09-09T09:30:53.658Z,15.30
2018-09-09T09:33:22.375Z,11.75
2018-09-09T09:35:52.378Z,10.70
2018-09-09T09:38:22.444Z,10.95
2018-09-09T09:40:51.669Z,9.60
2018-09-09T09:43:20.227Z,9.23
2018-09-09T09:45:48.851Z,9.85
2018-09-09T09:48:17.486Z,8.95
2018-09-09T09:50:46.052Z,8.75
2018-09-09T09:53:14.605Z,8.60
2018-09-09T09:55:43.138Z,10.60
2018-09-09T09:58:11.950Z,9.83
2018-09-09T10:00:45.835Z,12.43
2018-09-09T10:03:14.416Z,12.15
2018-09-09T10:05:43.027Z,14.40
2018-09-09T10:08:11.539Z,10.48
2018-09-09T10:10:40.186Z,11.20
2018-09-09T10:13:08.799Z,10.05
2018-09-09T10:15:37.357Z,8.58
2018-09-09T10:18:06.180Z,8.88
2018-09-09T10:20:48.805Z,9.63
2018-09-09T10:23:17.372Z,8.65
2018-09-09T10:25:45.970Z,9.98
2018-09-09T10:28:14.565Z,10.53
2018-09-09T10:30:43.257Z,10.13
2018-09-09T10:33:13.550Z,9.03
2018-09-09T10:35:42.151Z,8.73
2018-09-09T10:38:10.666Z,8.03
2018-09-09T10:40:39.255Z,9.73
2018-09-09T10:43:07.739Z,8.05
2018-09-09T10:45:36.293Z,8.23
2018-09-09T10:48:05.026Z,9.70
2018-09-09T10:50:33.743Z,8.85
2018-09-09T10:53:02.490Z,12.13
2018-09-09T10:55:31.215Z,8.43
2018-09-09T10:57:59.843Z,9.55
2018-09-09T11:00:28.535Z,9.08
2018-09-09T11:02:57.440Z,8.98
2018-09-09T11:05:26.003Z,10.38
2018-09-09T11:07:54.828Z,6.85
2018-09-09T11:10:23.428Z,9.53
2018-09-09T11:12:52.227Z,8.25
2018-09-09T11:15:20.867Z,7.05
2018-09-09T11:17:50.127Z,9.78
2018-09-09T11:20:18.674Z,9.25
2018-09-09T11:22:47.200Z,8.10
2018-09-09T11:25:15.779Z,10.15
2018-09-09T11:27:44.348Z,8.25
2018-09-09T11:30:12.899Z,7.12
2018-09-09T11:32:41.524Z,6.08
2018-09-09T11:35:10.163Z,7.05
2018-09-09T11:37:38.695Z,6.58
2018-09-09T11:40:07.350Z,7.28
2018-09-09T11:42:35.882Z,6.12
2018-09-09T11:45:04.693Z,5.28
2018-09-09T11:47:33.305Z,6.55
2018-09-09T11:50:01.847Z,5.55
2018-09-09T11:52:30.811Z,6.97
2018-09-09T11:54:59.504Z,4.58
2018-09-09T11:57:28.030Z,4.67
2018-09-09T11:59:56.618Z,4.83
2018-09-09T12:02:25.154Z,8.18
2018-09-09T12:04:53.691Z,5.42
2018-09-09T12:07:22.252Z,5.80
2018-09-09T12:09:50.702Z,4.78
2018-09-09T12:12:19.251Z,5.08
2018-09-09T12:14:52.998Z,4.40
2018-09-09T12:17:21.602Z,5.20
2018-09-09T12:19:50.135Z,5.65
2018-09-09T12:22:18.683Z,5.00
2018-09-09T12:24:47.289Z,4.80
2018-09-09T12:27:15.853Z,4.72
2018-09-09T12:29:44.334Z,4.22
2018-09-09T12:32:12.930Z,5.22
2018-09-09T12:34:41.467Z,3.95
2018-09-09T12:37:09.992Z,5.53
2018-09-09T12:39:38.499Z,4.28
2018-09-09T12:42:07.031Z,4.92
2018-09-09T12:44:40.962Z,4.08
2018-09-09T12:47:14.788Z,6.15
2018-09-09T12:49:43.237Z,3.98
2018-09-09T12:52:11.787Z,4.28
2018-09-09T12:54:40.292Z,3.62
2018-09-09T12:57:08.818Z,5.05
2018-09-09T12:59:37.538Z,4.97
2018-09-09T13:02:06.164Z,3.37
2018-09-09T13:04:34.682Z,3.62
2018-09-09T13:07:03.202Z,3.30
2018-09-09T13:09:31.728Z,3.83
2018-09-09T13:12:00.318Z,4.70
2018-09-09T13:14:28.855Z,3.67
2018-09-09T13:16:57.406Z,3.87
2018-09-09T13:19:25.957Z,3.47
2018-09-09T13:21:54.481Z,4.10
2018-09-09T13:24:23.119Z,3.47
2018-09-09T13:26:51.714Z,4.12
2018-09-09T13:29:20.269Z,3.60
2018-09-09T13:31:48.851Z,3.98
2018-09-09T13:34:17.717Z,3.87
2018-09-09T13:36:46.795Z,3.30
2018-09-09T13:39:15.932Z,3.60
2018-09-09T13:41:44.511Z,2.87
2018-09-09T13:44:31.619Z,9.95
2018-09-09T13:47:00.164Z,3.30
2018-09-09T13:49:28.687Z,7.50
2018-09-09T13:51:57.239Z,3.40
2018-09-09T13:54:25.807Z,3.20
2018-09-09T13:56:54.388Z,3.05
2018-09-09T13:59:22.898Z,4.05
2018-09-09T14:01:51.411Z,2.83
2018-09-09T14:04:19.897Z,3.33
2018-09-09T14:06:48.423Z,3.22
2018-09-09T14:09:16.978Z,3.02
2018-09-09T14:11:45.481Z,4.47
2018-09-09T14:14:14.023Z,2.85
2018-09-09T14:16:42.602Z,3.05
2018-09-09T14:19:11.119Z,3.10
2018-09-09T14:21:39.635Z,3.62
2018-09-09T14:24:08.162Z,3.30
2018-09-09T14:26:36.675Z,3.20
2018-09-09T14:29:05.240Z,2.70
2018-09-09T14:31:33.710Z,2.90
2018-09-09T14:34:02.196Z,4.62
2018-09-09T14:36:30.690Z,10.38
2018-09-09T14:38:59.199Z,3.98
2018-09-09T14:41:27.690Z,3.00
2018-09-09T14:43:56.197Z,3.00
2018-09-09T14:46:24.659Z,5.75
2018-09-09T14:48:53.150Z,2.92
2018-09-09T14:51:21.605Z,3.25
2018-09-09T14:53:50.338Z,4.37
2018-09-09T14:56:18.827Z,3.67
2018-09-09T14:58:47.333Z,3.33
2018-09-09T15:01:15.888Z,3.20
2018-09-09T15:03:44.430Z,3.40
2018-09-09T15:06:12.915Z,2.80
2018-09-09T15:08:41.416Z,2.65
2018-09-09T15:11:09.940Z,3.35
2018-09-09T15:13:38.607Z,3.22
2018-09-09T15:16:07.123Z,5.42
2018-09-09T15:18:35.643Z,2.72
2018-09-09T15:21:04.215Z,4.45
2018-09-09T15:23:32.753Z,4.30
2018-09-09T15:26:01.245Z,4.55
2018-09-09T15:28:29.828Z,6.87
2018-09-09T15:30:58.327Z,4.45
2018-09-09T15:33:26.903Z,3.80
2018-09-09T15:35:55.423Z,5.03
2018-09-09T15:38:25.763Z,2.60
2018-09-09T15:40:54.336Z,4.35
2018-09-09T15:43:22.847Z,5.42
2018-09-09T15:45:51.499Z,2.33
2018-09-09T15:48:20.012Z,3.62
2018-09-09T15:50:48.509Z,2.80
2018-09-09T15:53:17.042Z,2.12
2018-09-09T15:55:45.540Z,4.40
2018-09-09T15:58:14.199Z,2.70
2018-09-09T16:00:42.766Z,2.65
2018-09-09T16:03:11.315Z,4.37
2018-09-09T16:05:40.224Z,2.20
2018-09-09T16:08:08.768Z,3.52
2018-09-09T16:10:39.059Z,2.40
2018-09-09T16:13:07.801Z,3.37
2018-09-09T16:15:36.777Z,3.75
2018-09-09T16:18:05.348Z,2.33
2018-09-09T16:20:33.882Z,3.67
2018-09-09T16:23:02.765Z,2.65
2018-09-09T16:25:31.430Z,2.83
2018-09-09T16:27:59.948Z,2.30
2018-09-09T16:30:28.524Z,2.83
2018-09-09T16:32:57.040Z,3.08
2018-09-09T16:35:26.426Z,5.42
2018-09-09T16:37:54.943Z,3.12
2018-09-09T16:40:23.432Z,2.37
2018-09-09T16:42:51.936Z,2.42
2018-09-09T16:45:20.448Z,3.72
2018-09-09T16:47:48.953Z,3.75
2018-09-09T16:50:17.471Z,2.72
2018-09-09T16:52:45.971Z,5.20
2018-09-09T16:55:14.468Z,2.92
2018-09-09T16:57:42.986Z,2.60
2018-09-09T17:00:11.510Z,3.27
2018-09-09T17:02:40.087Z,4.25
2018-09-09T17:05:08.610Z,2.87
2018-09-09T17:07:37.067Z,3.20
2018-09-09T17:10:05.611Z,3.17
2018-09-09T17:12:34.115Z,2.80
2018-09-09T17:15:02.649Z,5.45
2018-09-09T17:17:31.146Z,4.25
2018-09-09T17:19:59.642Z,5.72
2018-09-09T17:22:28.119Z,4.65
2018-09-09T17:24:56.624Z,3.67
2018-09-09T17:27:25.096Z,4.28
2018-09-09T17:29:53.607Z,2.95
2018-09-09T17:32:23.748Z,4.47
2018-09-09T17:34:52.338Z,3.80
2018-09-09T17:37:20.877Z,4.95
2018-09-09T17:39:49.467Z,3.85
2018-09-09T17:42:18.018Z,5.22
2018-09-09T17:44:46.563Z,3.55
2018-09-09T17:47:15.099Z,14.25
2018-09-09T17:49:43.638Z,21.93
2018-09-09T17:52:12.284Z,8.23
2018-09-09T17:54:40.795Z,5.60
2018-09-09T17:57:09.331Z,5.30
2018-09-09T17:59:37.850Z,5.08
2018-09-09T18:02:06.370Z,4.08
2018-09-09T18:04:34.951Z,5.37
2018-09-09T18:07:03.479Z,4.85
2018-09-09T18:09:32.152Z,3.85
2018-09-09T18:12:00.656Z,4.30
2018-09-09T18:14:29.215Z,6.12
2018-09-09T18:16:57.833Z,5.37
2018-09-09T18:19:26.330Z,5.75
2018-09-09T18:21:54.925Z,7.53
2018-09-09T18:24:23.734Z,7.03
2018-09-09T18:26:52.699Z,4.97
2018-09-09T18:29:21.503Z,8.13
2018-09-09T18:31:50.347Z,6.37
2018-09-09T18:34:18.866Z,6.37
2018-09-09T18:36:47.413Z,5.12
2018-09-09T18:39:16.067Z,4.75
2018-09-09T18:41:45.440Z,4.78
2018-09-09T18:44:14.131Z,5.80
2018-09-09T18:46:43.173Z,5.22
2018-09-09T18:49:11.772Z,10.13
2018-09-09T18:51:41.648Z,7.35
2018-09-09T18:54:10.691Z,6.50
2018-09-09T18:56:39.281Z,6.83
2018-09-09T18:59:07.909Z,6.15
2018-09-09T19:01:37.502Z,4.78
2018-09-09T19:04:06.579Z,5.90
2018-09-09T19:06:35.159Z,5.12
2018-09-09T19:09:04.387Z,4.60
2018-09-09T19:11:33.227Z,7.00
2018-09-09T19:14:02.268Z,5.10
2018-09-09T19:16:30.958Z,6.20
2018-09-09T19:18:59.535Z,6.62
2018-09-09T19:21:28.154Z,5.17
2018-09-09T19:23:56.920Z,5.22
2018-09-09T19:26:25.609Z,7.90
2018-09-09T19:28:54.255Z,7.50
2018-09-09T19:31:23.307Z,6.33
2018-09-09T19:33:52.179Z,7.33
2018-09-09T19:36:21.312Z,8.08
2018-09-09T19:38:49.867Z,7.37
2018-09-09T19:41:18.571Z,5.28
2018-09-09T19:43:47.781Z,8.13
2018-09-09T19:46:16.694Z,6.87
2018-09-09T19:48:45.711Z,6.25
2018-09-09T19:51:14.486Z,4.70
2018-09-09T19:53:44.186Z,5.58
2018-09-09T19:56:12.864Z,5.90
2018-09-09T19:58:41.904Z,4.85
2018-09-09T20:01:10.662Z,5.85
2018-09-09T20:03:39.318Z,8.10
2018-09-09T20:06:08.294Z,7.83
2018-09-09T20:08:36.780Z,7.03
2018-09-09T20:11:05.304Z,8.40
2018-09-09T20:13:33.810Z,5.42
2018-09-09T20:16:02.655Z,6.80
2018-09-09T20:18:31.154Z,7.62
2018-09-09T20:20:59.671Z,7.40
2018-09-09T20:23:28.183Z,6.08
2018-09-09T20:25:56.689Z,6.33
2018-09-09T20:28:25.283Z,8.55
2018-09-09T20:30:53.767Z,7.53
2018-09-09T20:33:22.292Z,10.08
2018-09-09T20:35:50.755Z,6.23
2018-09-09T20:38:19.303Z,7.28
2018-09-09T20:40:47.778Z,6.30
2018-09-09T20:43:16.340Z,8.37
2018-09-09T20:45:44.851Z,7.90
2018-09-09T20:48:13.372Z,9.43
2018-09-09T20:50:41.871Z,8.17
2018-09-09T20:53:10.383Z,8.37
2018-09-09T20:55:38.888Z,7.63
2018-09-09T20:58:07.395Z,8.40
2018-09-09T21:00:35.901Z,6.53
2018-09-09T21:03:04.398Z,7.97
2018-09-09T21:05:32.895Z,8.90
2018-09-09T21:08:01.379Z,5.90
2018-09-09T21:10:29.862Z,7.43
2018-09-09T21:12:58.429Z,10.17
2018-09-09T21:15:26.924Z,5.97
2018-09-09T21:17:55.435Z,7.33
2018-09-09T21:20:23.903Z,7.93
2018-09-09T21:22:52.404Z,6.13
2018-09-09T21:25:20.895Z,8.27
2018-09-09T21:27:49.377Z,7.60
2018-09-09T21:30:17.852Z,7.53
2018-09-09T21:32:46.378Z,7.33
2018-09-09T21:35:14.855Z,6.70
2018-09-09T21:37:43.339Z,8.43
2018-09-09T21:40:11.877Z,7.87
2018-09-09T21:42:40.399Z,9.03
2018-09-09T21:45:08.928Z,7.07
2018-09-09T21:47:37.446Z,6.87
2018-09-09T21:50:05.977Z,6.40
2018-09-09T21:52:34.490Z,11.60
2018-09-09T21:55:02.998Z,5.37
2018-09-09T21:57:31.499Z,8.43
2018-09-09T22:00:00.165Z,9.83
2018-09-09T22:02:28.654Z,8.03
2018-09-09T22:04:57.138Z,7.13
2018-09-09T22:07:25.646Z,10.40
2018-09-09T22:09:54.134Z,6.97
2018-09-09T22:12:22.614Z,11.63
2018-09-09T22:14:51.118Z,7.43
2018-09-09T22:17:19.583Z,10.90
2018-09-09T22:19:48.098Z,8.80
2018-09-09T22:22:16.560Z,9.87
2018-09-09T22:24:45.403Z,10.83
2018-09-09T22:27:13.937Z,10.50
2018-09-09T22:29:42.427Z,7.43
2018-09-09T22:32:11.230Z,9.73
2018-09-09T22:34:39.782Z,11.83
2018-09-09T22:37:08.343Z,7.30
2018-09-09T22:39:36.878Z,7.13
2018-09-09T22:42:05.392Z,9.57
2018-09-09T22:44:33.946Z,9.00
2018-09-09T22:47:02.451Z,8.70
2018-09-09T22:49:30.956Z,9.43
2018-09-09T22:51:59.714Z,13.33
2018-09-09T22:54:28.239Z,7.50
2018-09-09T22:56:56.742Z,8.43
2018-09-09T22:59:25.291Z,9.30
2018-09-09T23:01:53.826Z,8.83
2018-09-09T23:04:22.358Z,10.03
2018-09-09T23:06:50.882Z,10.57
2018-09-09T23:09:19.407Z,13.40
2018-09-09T23:11:47.926Z,10.17
2018-09-09T23:14:16.451Z,9.90
2018-09-09T23:16:44.939Z,9.63
2018-09-09T23:19:13.454Z,14.33
2018-09-09T23:21:41.959Z,11.97
2018-09-09T23:24:10.477Z,9.73
2018-09-09T23:26:38.977Z,11.83
2018-09-09T23:29:07.498Z,9.03
2018-09-09T23:31:36.037Z,10.47
2018-09-09T23:34:04.554Z,10.23
2018-09-09T23:36:33.038Z,8.27
2018-09-09T23:39:01.587Z,11.27
2018-09-09T23:41:30.063Z,10.20
2018-09-09T23:43:58.574Z,9.27
2018-09-09T23:46:27.119Z,9.77
2018-09-09T23:48:55.682Z,10.17
2018-09-09T23:51:24.178Z,6.83
2018-09-09T23:53:52.758Z,8.23
2018-09-09T23:56:21.239Z,10.50
2018-09-09T23:58:49.742Z,11.00
